createdAt,value
2018-07-09T00:01:39.849Z,16.94
2018-07-09T00:04:09.008Z,16.88
2018-07-09T00:06:38.285Z,16.73
2018-07-09T00:09:07.582Z,16.63
2018-07-09T00:11:37.071Z,16.56
2018-07-09T00:14:06.093Z,16.48
2018-07-09T00:16:34.839Z,16.38
2018-07-09T00:19:04.008Z,16.35
2018-07-09T00:21:33.076Z,16.25
2018-07-09T00:24:02.063Z,16.23
2018-07-09T00:26:31.515Z,16.27
2018-07-09T00:29:00.531Z,16.21
2018-07-09T00:31:29.536Z,16.17
2018-07-09T00:33:58.677Z,16.13
2018-07-09T00:36:27.719Z,16.20
2018-07-09T00:38:57.119Z,16.21
2018-07-09T00:41:26.650Z,16.24
2018-07-09T00:43:55.591Z,16.27
2018-07-09T00:46:24.839Z,16.27
2018-07-09T00:48:53.968Z,16.27
2018-07-09T00:51:22.667Z,16.36
2018-07-09T00:53:51.686Z,16.33
2018-07-09T00:56:21.173Z,16.31
2018-07-09T00:58:50.250Z,16.31
2018-07-09T01:01:19.763Z,16.31
2018-07-09T01:03:49.302Z,16.31
2018-07-09T01:06:18.571Z,16.27
2018-07-09T01:08:47.487Z,16.27
2018-07-09T01:11:27.650Z,16.25
2018-07-09T01:13:56.730Z,16.26
2018-07-09T01:16:25.603Z,16.27
2018-07-09T01:18:55.045Z,16.39
2018-07-09T01:21:24.264Z,16.38
2018-07-09T01:23:53.325Z,16.44
2018-07-09T01:26:22.655Z,16.48
2018-07-09T01:28:52.014Z,16.55
2018-07-09T01:31:21.032Z,16.53
2018-07-09T01:33:50.350Z,16.55
2018-07-09T01:36:19.335Z,16.59
2018-07-09T01:38:48.325Z,16.61
2018-07-09T01:41:17.241Z,16.66
2018-07-09T01:43:46.316Z,16.64
2018-07-09T01:46:15.415Z,16.62
2018-07-09T01:48:44.719Z,16.64
2018-07-09T01:51:13.439Z,16.69
2018-07-09T01:53:42.996Z,16.62
2018-07-09T01:56:12.498Z,16.59
2018-07-09T01:58:41.154Z,16.56
2018-07-09T02:01:10.094Z,16.54
2018-07-09T02:03:39.304Z,16.50
2018-07-09T02:06:08.287Z,16.57
2018-07-09T02:08:37.404Z,16.49
2018-07-09T02:11:06.800Z,16.45
2018-07-09T02:13:36.403Z,16.35
2018-07-09T02:16:05.284Z,16.35
2018-07-09T02:18:34.694Z,16.27
2018-07-09T02:21:04.096Z,16.21
2018-07-09T02:23:32.980Z,16.13
2018-07-09T02:26:03.020Z,16.07
2018-07-09T02:28:32.156Z,16.07
2018-07-09T02:31:01.007Z,16.14
2018-07-09T02:33:30.412Z,16.18
2018-07-09T02:35:59.301Z,16.22
2018-07-09T02:38:28.003Z,16.24
2018-07-09T02:40:57.713Z,16.32
2018-07-09T02:43:26.464Z,16.35
2018-07-09T02:45:55.378Z,16.47
2018-07-09T02:48:24.420Z,16.56
2018-07-09T02:50:53.359Z,16.64
2018-07-09T02:53:22.824Z,16.68
2018-07-09T02:55:52.195Z,16.71
2018-07-09T02:58:21.286Z,16.75
2018-07-09T03:00:50.573Z,16.84
2018-07-09T03:03:19.444Z,16.72
2018-07-09T03:05:48.239Z,16.68
2018-07-09T03:08:17.045Z,16.82
2018-07-09T03:10:46.857Z,16.81
2018-07-09T03:13:15.935Z,16.77
2018-07-09T03:15:44.920Z,16.86
2018-07-09T03:18:14.077Z,16.89
2018-07-09T03:20:43.321Z,16.87
2018-07-09T03:23:12.427Z,16.91
2018-07-09T03:25:41.539Z,17.07
2018-07-09T03:28:11.045Z,17.15
2018-07-09T03:30:39.934Z,17.18
2018-07-09T03:33:09.165Z,17.13
2018-07-09T03:35:37.989Z,17.11
2018-07-09T03:38:07.022Z,17.17
2018-07-09T03:40:36.239Z,17.14
2018-07-09T03:43:04.978Z,17.18
2018-07-09T03:45:34.010Z,17.22
2018-07-09T03:48:03.409Z,17.29
2018-07-09T03:50:32.302Z,17.34
2018-07-09T03:53:05.027Z,17.34
2018-07-09T03:55:36.422Z,17.40
2018-07-09T03:58:05.852Z,17.45
2018-07-09T04:00:35.161Z,17.53
2018-07-09T04:03:04.178Z,17.58
2018-07-09T04:05:33.366Z,17.62
2018-07-09T04:08:02.614Z,17.58
2018-07-09T04:10:31.810Z,17.75
2018-07-09T04:13:02.937Z,17.74
2018-07-09T04:15:31.994Z,17.80
2018-07-09T04:18:01.175Z,17.90
2018-07-09T04:20:30.490Z,17.91
2018-07-09T04:22:59.269Z,17.94
2018-07-09T04:25:28.373Z,18.07
2018-07-09T04:27:57.712Z,18.09
2018-07-09T04:30:26.663Z,18.14
2018-07-09T04:32:55.994Z,18.26
2018-07-09T04:35:25.389Z,18.26
2018-07-09T04:37:54.718Z,18.21
2018-07-09T04:40:24.879Z,18.23
2018-07-09T04:42:55.870Z,18.29
2018-07-09T04:45:25.249Z,18.43
2018-07-09T04:47:54.535Z,18.39
2018-07-09T04:50:24.499Z,18.50
2018-07-09T04:52:53.475Z,18.61
2018-07-09T04:55:22.319Z,18.66
2018-07-09T04:57:51.659Z,18.79
2018-07-09T05:00:20.722Z,18.85
2018-07-09T05:02:49.672Z,18.92
2018-07-09T05:05:19.043Z,19.12
2018-07-09T05:07:47.889Z,19.37
2018-07-09T05:10:17.006Z,19.37
2018-07-09T05:12:46.481Z,19.44
2018-07-09T05:15:15.504Z,19.66
2018-07-09T05:17:44.411Z,19.89
2018-07-09T05:20:13.602Z,20.09
2018-07-09T05:22:42.604Z,20.20
2018-07-09T05:25:11.574Z,20.38
2018-07-09T05:27:41.010Z,20.22
2018-07-09T05:30:11.543Z,20.28
2018-07-09T05:32:41.773Z,20.47
2018-07-09T05:35:10.850Z,20.75
2018-07-09T05:37:40.019Z,20.88
2018-07-09T05:40:09.465Z,20.77
2018-07-09T05:42:39.126Z,20.71
2018-07-09T05:45:08.202Z,20.75
2018-07-09T05:47:37.721Z,20.82
2018-07-09T05:50:07.336Z,20.59
2018-07-09T05:52:36.575Z,20.85
2018-07-09T05:55:05.715Z,21.05
2018-07-09T05:57:35.543Z,21.08
2018-07-09T06:00:04.515Z,21.11
2018-07-09T06:02:34.141Z,21.21
2018-07-09T06:05:04.414Z,20.74
2018-07-09T06:07:33.359Z,20.76
2018-07-09T06:10:03.203Z,21.18
2018-07-09T06:12:32.109Z,21.36
2018-07-09T06:15:01.038Z,21.61
2018-07-09T06:17:30.898Z,21.87
2018-07-09T06:20:00.657Z,21.90
2018-07-09T06:22:29.610Z,22.63
2018-07-09T06:24:58.859Z,23.53
2018-07-09T06:27:27.861Z,23.46
2018-07-09T06:29:56.717Z,23.40
2018-07-09T06:32:26.117Z,23.30
2018-07-09T06:34:55.099Z,23.03
2018-07-09T06:37:24.031Z,22.87
2018-07-09T06:39:53.127Z,22.49
2018-07-09T06:42:22.114Z,22.13
2018-07-09T06:44:51.287Z,22.12
2018-07-09T06:47:20.424Z,22.19
2018-07-09T06:49:49.695Z,22.16
2018-07-09T06:52:18.479Z,22.10
2018-07-09T06:54:47.555Z,22.39
2018-07-09T06:57:16.398Z,22.29
2018-07-09T06:59:45.550Z,22.91
2018-07-09T07:02:15.018Z,23.75
2018-07-09T07:04:44.273Z,25.84
2018-07-09T07:07:13.218Z,27.66
2018-07-09T07:09:42.070Z,27.16
2018-07-09T07:12:11.128Z,27.69
2018-07-09T07:14:40.146Z,27.64
2018-07-09T07:17:08.865Z,28.52
2018-07-09T07:19:37.823Z,28.72
2018-07-09T07:22:07.841Z,29.61
2018-07-09T07:24:36.932Z,29.35
2018-07-09T07:27:05.939Z,27.91
2018-07-09T07:29:34.823Z,27.04
2018-07-09T07:32:03.666Z,26.23
2018-07-09T07:34:32.624Z,26.32
2018-07-09T07:37:02.141Z,25.62
2018-07-09T07:39:31.143Z,25.20
2018-07-09T07:41:59.986Z,24.69
2018-07-09T07:44:28.821Z,24.04
2018-07-09T07:46:58.378Z,24.73
2018-07-09T07:49:27.814Z,25.78
2018-07-09T07:51:57.004Z,26.53
2018-07-09T07:54:26.614Z,26.06
2018-07-09T07:56:55.479Z,25.91
2018-07-09T07:59:24.363Z,26.85
2018-07-09T08:01:53.510Z,27.74
2018-07-09T08:04:22.480Z,27.12
2018-07-09T08:06:51.495Z,26.52
2018-07-09T08:09:21.732Z,26.16
2018-07-09T08:11:50.711Z,25.57
2018-07-09T08:14:21.216Z,26.24
2018-07-09T08:16:50.711Z,26.95
2018-07-09T08:19:19.833Z,27.96
2018-07-09T08:21:49.058Z,28.61
2018-07-09T08:24:17.857Z,28.62
2018-07-09T08:26:48.586Z,28.95
2018-07-09T08:29:17.610Z,28.48
2018-07-09T08:31:48.860Z,28.69
2018-07-09T08:34:17.573Z,28.63
2018-07-09T08:36:46.532Z,29.02
2018-07-09T08:39:15.690Z,27.82
2018-07-09T08:41:44.908Z,27.78
2018-07-09T08:44:14.036Z,27.74
2018-07-09T08:46:43.530Z,29.20
2018-07-09T08:49:13.360Z,28.61
2018-07-09T08:51:43.330Z,29.23
2018-07-09T08:54:12.775Z,28.61
2018-07-09T08:56:41.563Z,28.75
2018-07-09T08:59:10.882Z,28.37
2018-07-09T09:01:40.686Z,28.68
2018-07-09T09:04:09.491Z,28.53
2018-07-09T09:06:39.379Z,28.54
2018-07-09T09:09:08.905Z,29.21
2018-07-09T09:11:37.725Z,29.15
2018-07-09T09:14:07.118Z,28.76
2018-07-09T09:16:37.101Z,28.80
2018-07-09T09:19:06.013Z,28.53
2018-07-09T09:21:35.516Z,27.62
2018-07-09T09:24:04.778Z,28.63
2018-07-09T09:26:33.605Z,28.80
2018-07-09T09:29:02.451Z,27.58
2018-07-09T09:31:32.285Z,26.46
2018-07-09T09:34:01.192Z,25.92
2018-07-09T09:36:30.088Z,25.72
2018-07-09T09:38:59.511Z,25.42
2018-07-09T09:41:28.591Z,24.99
2018-07-09T09:43:57.692Z,25.32
2018-07-09T09:46:26.717Z,25.23
2018-07-09T09:51:37.049Z,25.20
2018-07-09T09:54:06.572Z,25.35
2018-07-09T09:56:35.688Z,25.36
2018-07-09T09:59:04.882Z,25.43
2018-07-09T10:01:34.600Z,25.53
2018-07-09T10:04:03.337Z,25.55
2018-07-09T10:06:32.602Z,25.36
2018-07-09T10:09:02.131Z,25.65
2018-07-09T10:11:30.956Z,25.57
2018-07-09T10:14:00.269Z,25.56
2018-07-09T10:16:29.723Z,25.65
2018-07-09T10:18:58.626Z,25.59
2018-07-09T10:21:27.439Z,25.10
2018-07-09T10:23:57.179Z,25.63
2018-07-09T10:26:26.250Z,25.91
2018-07-09T10:28:55.561Z,25.85
2018-07-09T10:31:24.349Z,25.58
2018-07-09T10:33:53.352Z,24.77
2018-07-09T10:36:22.434Z,24.72
2018-07-09T10:38:51.771Z,25.11
2018-07-09T10:41:20.839Z,25.31
2018-07-09T10:43:50.019Z,25.45
2018-07-09T10:46:19.290Z,25.57
2018-07-09T10:48:48.208Z,25.37
2018-07-09T10:51:17.211Z,25.62
2018-07-09T10:53:46.827Z,25.47
2018-07-09T10:56:15.918Z,25.43
2018-07-09T10:58:44.890Z,25.02
2018-07-09T11:01:14.254Z,24.78
2018-07-09T11:03:43.514Z,24.86
2018-07-09T11:06:12.508Z,24.74
2018-07-09T11:08:41.690Z,24.69
2018-07-09T11:11:10.507Z,24.12
2018-07-09T11:13:39.883Z,23.70
2018-07-09T11:16:09.089Z,24.07
2018-07-09T11:18:38.099Z,24.38
2018-07-09T11:21:07.193Z,24.11
2018-07-09T11:23:36.507Z,23.81
2018-07-09T11:26:05.525Z,24.08
2018-07-09T11:28:34.382Z,23.66
2018-07-09T11:31:03.903Z,23.09
2018-07-09T11:33:32.988Z,22.40
2018-07-09T11:36:02.658Z,22.55
2018-07-09T11:38:32.106Z,22.85
2018-07-09T11:41:01.200Z,23.09
2018-07-09T11:43:30.192Z,23.00
2018-07-09T11:45:59.303Z,23.02
2018-07-09T11:48:28.564Z,22.91
2018-07-09T11:50:57.595Z,23.16
2018-07-09T11:53:27.019Z,23.54
2018-07-09T11:55:56.070Z,23.43
2018-07-09T11:58:25.242Z,23.59
2018-07-09T12:00:54.106Z,23.54
2018-07-09T12:03:22.829Z,23.74
2018-07-09T12:05:51.636Z,23.76
2018-07-09T12:08:20.474Z,24.01
2018-07-09T12:10:49.445Z,24.10
2018-07-09T12:13:18.719Z,24.48
2018-07-09T12:15:47.989Z,24.28
2018-07-09T12:18:17.216Z,24.15
2018-07-09T12:20:46.953Z,24.12
2018-07-09T12:23:16.451Z,24.02
2018-07-09T12:25:45.200Z,23.82
2018-07-09T12:28:14.022Z,23.31
2018-07-09T12:30:43.453Z,23.45
2018-07-09T12:33:12.541Z,23.31
2018-07-09T12:35:41.674Z,23.43
2018-07-09T12:38:10.919Z,23.43
2018-07-09T12:40:39.817Z,23.32
2018-07-09T12:43:09.200Z,22.88
2018-07-09T12:45:38.660Z,22.74
2018-07-09T12:48:07.817Z,22.90
2018-07-09T12:50:36.818Z,23.07
2018-07-09T12:53:06.068Z,22.87
2018-07-09T12:55:34.991Z,22.56
2018-07-09T12:58:04.011Z,22.88
2018-07-09T13:00:33.379Z,23.02
2018-07-09T13:03:02.430Z,23.12
2018-07-09T13:05:31.718Z,23.02
2018-07-09T13:08:00.715Z,22.57
2018-07-09T13:10:30.511Z,22.22
2018-07-09T13:12:59.611Z,22.24
2018-07-09T13:15:29.110Z,22.27
2018-07-09T13:17:58.191Z,22.49
2018-07-09T13:20:27.259Z,22.48
2018-07-09T13:22:56.630Z,22.51
2018-07-09T13:25:26.392Z,22.48
2018-07-09T13:27:55.337Z,22.37
2018-07-09T13:30:24.976Z,22.51
2018-07-09T13:32:54.406Z,22.31
2018-07-09T13:35:23.916Z,22.36
2018-07-09T13:37:52.988Z,22.71
2018-07-09T13:40:22.147Z,22.72
2018-07-09T13:42:51.240Z,22.60
2018-07-09T13:45:20.561Z,22.78
2018-07-09T13:47:49.428Z,22.63
2018-07-09T13:50:18.800Z,22.22
2018-07-09T13:52:48.238Z,22.16
2018-07-09T13:55:17.236Z,21.98
2018-07-09T13:57:46.743Z,22.42
2018-07-09T14:00:15.945Z,22.35
2018-07-09T14:02:45.045Z,22.33
2018-07-09T14:05:13.825Z,22.60
2018-07-09T14:07:42.738Z,22.79
2018-07-09T14:10:11.728Z,22.98
2018-07-09T14:12:40.830Z,23.10
2018-07-09T14:15:10.115Z,23.04
2018-07-09T14:17:39.292Z,23.16
2018-07-09T14:20:36.850Z,23.45
2018-07-09T14:23:06.716Z,23.62
2018-07-09T14:25:35.894Z,23.55
2018-07-09T14:28:06.065Z,23.50
2018-07-09T14:30:35.431Z,23.47
2018-07-09T14:33:04.911Z,23.64
2018-07-09T14:35:34.421Z,23.39
2018-07-09T14:38:03.528Z,23.31
2018-07-09T14:40:32.417Z,23.44
2018-07-09T14:43:02.122Z,23.47
2018-07-09T14:45:31.299Z,23.39
2018-07-09T14:48:00.093Z,23.53
2018-07-09T14:50:29.611Z,23.47
2018-07-09T14:52:58.627Z,23.21
2018-07-09T14:55:27.819Z,22.80
2018-07-09T14:57:57.387Z,22.78
2018-07-09T15:00:26.530Z,22.59
2018-07-09T15:02:56.107Z,22.28
2018-07-09T15:05:26.336Z,22.31
2018-07-09T15:07:55.345Z,22.44
2018-07-09T15:10:24.423Z,22.43
2018-07-09T15:12:53.856Z,22.25
2018-07-09T15:15:23.650Z,22.17
2018-07-09T15:17:52.472Z,22.19
2018-07-09T15:20:21.635Z,22.01
2018-07-09T15:22:51.151Z,22.22
2018-07-09T15:25:20.257Z,22.23
2018-07-09T15:27:49.291Z,22.33
2018-07-09T15:30:17.987Z,22.38
2018-07-09T15:32:46.807Z,22.38
2018-07-09T15:35:16.163Z,22.40
2018-07-09T15:37:45.302Z,22.43
2018-07-09T15:40:15.051Z,22.18
2018-07-09T15:42:44.469Z,22.19
2018-07-09T15:45:13.679Z,22.19
2018-07-09T15:47:42.539Z,22.23
2018-07-09T15:50:11.435Z,22.24
2018-07-09T15:52:40.327Z,22.26
2018-07-09T15:55:09.395Z,22.32
2018-07-09T15:57:38.724Z,22.42
2018-07-09T16:00:07.909Z,22.46
2018-07-09T16:02:37.002Z,22.33
2018-07-09T16:05:06.763Z,22.34
2018-07-09T16:07:35.943Z,22.29
2018-07-09T16:10:04.923Z,22.22
2018-07-09T16:12:34.070Z,22.29
2018-07-09T16:15:03.280Z,22.22
2018-07-09T16:17:32.431Z,22.12
2018-07-09T16:20:01.722Z,22.04
2018-07-09T16:22:31.112Z,21.88
2018-07-09T16:25:00.126Z,22.04
2018-07-09T16:27:29.367Z,21.98
2018-07-09T16:29:58.260Z,21.93
2018-07-09T16:32:27.103Z,21.97
2018-07-09T16:34:56.197Z,22.02
2018-07-09T16:37:25.396Z,22.12
2018-07-09T16:39:54.387Z,22.11
2018-07-09T16:42:24.565Z,22.13
2018-07-09T16:44:54.040Z,22.00
2018-07-09T16:47:23.106Z,21.80
2018-07-09T16:49:52.182Z,21.82
2018-07-09T16:52:21.222Z,21.75
2018-07-09T16:54:50.101Z,21.75
2018-07-09T16:57:19.199Z,21.63
2018-07-09T16:59:48.083Z,21.50
2018-07-09T17:02:17.570Z,21.35
2018-07-09T17:04:46.947Z,21.36
2018-07-09T17:07:15.893Z,21.22
2018-07-09T17:09:44.786Z,21.25
2018-07-09T17:12:14.105Z,21.11
2018-07-09T17:14:43.071Z,21.11
2018-07-09T17:17:12.079Z,20.91
2018-07-09T17:19:41.312Z,20.85
2018-07-09T17:22:10.778Z,20.79
2018-07-09T17:24:39.664Z,20.79
2018-07-09T17:27:08.899Z,20.74
2018-07-09T17:29:37.767Z,20.67
2018-07-09T17:32:08.146Z,20.49
2018-07-09T17:34:37.291Z,20.39
2018-07-09T17:37:06.149Z,20.46
2018-07-09T17:39:34.979Z,20.27
2018-07-09T17:42:04.317Z,20.37
2018-07-09T17:44:33.582Z,20.41
2018-07-09T17:47:02.543Z,20.29
2018-07-09T17:49:31.911Z,20.33
2018-07-09T17:52:00.964Z,20.23
2018-07-09T17:54:29.819Z,20.17
2018-07-09T17:56:59.164Z,20.19
2018-07-09T17:59:28.539Z,20.20
2018-07-09T18:01:57.369Z,20.13
2018-07-09T18:04:26.549Z,19.99
2018-07-09T18:06:55.556Z,19.94
2018-07-09T18:09:28.692Z,19.88
2018-07-09T18:12:03.468Z,19.80
2018-07-09T18:14:36.612Z,19.81
2018-07-09T18:17:05.599Z,19.78
2018-07-09T18:19:34.757Z,19.64
2018-07-09T18:22:04.127Z,19.75
2018-07-09T18:24:33.103Z,19.57
2018-07-09T18:27:01.798Z,19.42
2018-07-09T18:29:31.040Z,19.36
2018-07-09T18:31:59.910Z,19.29
2018-07-09T18:34:28.951Z,19.24
2018-07-09T18:36:58.303Z,19.14
2018-07-09T18:39:27.182Z,19.05
2018-07-09T18:41:56.256Z,19.01
2018-07-09T18:44:25.419Z,19.06
2018-07-09T18:46:54.415Z,18.95
2018-07-09T18:49:23.175Z,19.00
2018-07-09T18:51:52.495Z,18.97
2018-07-09T18:54:21.375Z,18.97
2018-07-09T18:56:50.140Z,18.94
2018-07-09T18:59:19.642Z,18.98
2018-07-09T19:01:48.870Z,19.07
2018-07-09T19:04:18.035Z,19.04
2018-07-09T19:07:06.175Z,19.08
2018-07-09T19:09:35.575Z,19.08
2018-07-09T19:12:05.645Z,19.11
2018-07-09T19:14:40.280Z,19.04
2018-07-09T19:18:20.028Z,18.97
2018-07-09T19:21:28.490Z,19.04
2018-07-09T19:23:56.358Z,18.90
2018-07-09T19:26:23.874Z,18.78
2018-07-09T19:28:51.854Z,18.56
2018-07-09T19:31:19.385Z,18.44
2018-07-09T19:33:47.053Z,18.41
2018-07-09T19:36:14.731Z,18.23
2018-07-09T19:38:42.097Z,18.26
2018-07-09T19:41:10.029Z,17.95
2018-07-09T19:43:38.372Z,17.80
2018-07-09T19:46:05.986Z,17.64
2018-07-09T19:48:33.259Z,17.63
2018-07-09T19:51:01.108Z,17.43
2018-07-09T19:53:28.575Z,17.21
2018-07-09T19:55:56.532Z,17.13
2018-07-09T19:58:24.038Z,17.07
2018-07-09T20:00:51.360Z,16.96
2018-07-09T20:03:18.973Z,16.93
2018-07-09T20:05:46.690Z,16.87
2018-07-09T20:08:14.012Z,16.78
2018-07-09T20:10:46.599Z,16.72
2018-07-09T20:13:19.510Z,16.66
2018-07-09T20:15:52.032Z,16.61
2018-07-09T20:18:19.377Z,16.45
2018-07-09T20:20:47.322Z,16.44
2018-07-09T20:23:14.672Z,16.45
2018-07-09T20:25:42.005Z,16.40
2018-07-09T20:28:09.773Z,16.42
2018-07-09T20:30:37.162Z,16.42
2018-07-09T20:33:04.507Z,16.43
2018-07-09T20:35:32.171Z,16.41
2018-07-09T20:37:59.512Z,16.29
2018-07-09T20:40:27.069Z,16.45
2018-07-09T20:42:54.963Z,16.47
2018-07-09T20:45:22.503Z,16.55
2018-07-09T20:47:49.957Z,16.54
2018-07-09T20:50:17.459Z,16.55
2018-07-09T20:52:44.798Z,16.59
2018-07-09T20:55:12.158Z,16.64
2018-07-09T20:57:40.119Z,16.65
2018-07-09T21:00:07.453Z,16.66
2018-07-09T21:02:34.787Z,16.65
2018-07-09T21:05:02.314Z,16.72
2018-07-09T21:07:29.920Z,16.64
2018-07-09T21:09:57.253Z,16.65
2018-07-09T21:12:24.990Z,16.58
2018-07-09T21:14:52.522Z,16.62
2018-07-09T21:17:19.978Z,16.65
2018-07-09T21:19:47.342Z,16.66
2018-07-09T21:22:14.763Z,16.65
2018-07-09T21:24:42.244Z,16.57
2018-07-09T21:27:09.929Z,16.54
2018-07-09T21:29:37.266Z,16.53
2018-07-09T21:32:04.620Z,16.45
2018-07-09T21:34:32.400Z,16.38
2018-07-09T21:36:59.740Z,16.28
2018-07-09T21:39:27.070Z,16.33
2018-07-09T21:41:54.421Z,16.23
2018-07-09T21:44:21.912Z,16.11
2018-07-09T21:46:49.250Z,16.04
2018-07-09T21:49:16.958Z,15.89
2018-07-09T21:51:44.495Z,15.89
2018-07-09T21:54:11.827Z,15.84
2018-07-09T21:56:39.524Z,15.89
2018-07-09T21:59:06.970Z,15.95
2018-07-09T22:01:34.280Z,15.98
2018-07-09T22:04:02.206Z,16.04
2018-07-09T22:06:29.539Z,16.01
2018-07-09T22:08:56.894Z,15.98
2018-07-09T22:11:24.267Z,16.04
2018-07-09T22:13:51.718Z,16.07
2018-07-09T22:16:19.118Z,15.97
2018-07-09T22:18:46.948Z,15.99
2018-07-09T22:21:14.405Z,15.94
2018-07-09T22:23:41.751Z,15.89
2018-07-09T22:26:09.639Z,15.92
2018-07-09T22:28:37.094Z,15.93
2018-07-09T22:31:06.198Z,15.86
2018-07-09T22:33:35.235Z,15.98
2018-07-09T22:36:04.065Z,15.97
2018-07-09T22:38:33.254Z,15.97
2018-07-09T22:41:02.490Z,16.01
2018-07-09T22:43:42.215Z,16.01
2018-07-09T22:46:11.740Z,16.03
2018-07-09T22:48:40.599Z,16.03
2018-07-09T22:51:09.584Z,15.93
2018-07-09T22:53:38.609Z,15.94
2018-07-09T22:56:10.195Z,15.91
2018-07-09T22:58:41.010Z,15.91
2018-07-09T23:01:10.804Z,15.75
2018-07-09T23:03:39.806Z,15.86
2018-07-09T23:06:09.525Z,15.68
2018-07-09T23:08:38.599Z,15.61
2018-07-09T23:13:24.426Z,15.64
2018-07-09T23:17:01.621Z,15.58
2018-07-09T23:22:24.682Z,15.54
2018-07-09T23:24:52.019Z,15.54
2018-07-09T23:27:19.500Z,15.57
2018-07-09T23:29:47.391Z,15.52
2018-07-09T23:32:14.931Z,15.62
2018-07-09T23:34:42.355Z,15.65
2018-07-09T23:37:10.306Z,15.60
2018-07-09T23:39:37.654Z,15.60
2018-07-09T23:42:05.087Z,15.56
2018-07-09T23:44:32.552Z,15.59
2018-07-09T23:46:59.883Z,15.60
2018-07-09T23:49:27.206Z,15.62
2018-07-09T23:51:54.932Z,15.63
2018-07-09T23:54:22.254Z,15.60
2018-07-09T23:56:58.031Z,15.58
2018-07-09T23:59:37.865Z,15.65
